Map

Track Data

SID SEASON NUMBER BASIN SUBBASIN NAME ISO_TIME NATURE LAT LON WMO_WIND WMO_PRES WMO_AGENCY TRACK_TYPE DIST2LAND LANDFALL IFLAG USA_AGENCY USA_ATCF_ID USA_LAT USA_LON USA_RECORD USA_STATUS USA_WIND USA_PRES USA_SSHS USA_R34_NE USA_R34_SE USA_R34_SW USA_R34_NW USA_R50_NE USA_R50_SE USA_R50_SW USA_R50_NW USA_R64_NE USA_R64_SE USA_R64_SW USA_R64_NW USA_POCI USA_ROCI USA_RMW USA_EYE TOKYO_LAT TOKYO_LON TOKYO_GRADE TOKYO_WIND TOKYO_PRES TOKYO_R50_DIR TOKYO_R50_LONG TOKYO_R50_SHORT TOKYO_R30_DIR TOKYO_R30_LONG TOKYO_R30_SHORT TOKYO_LAND CMA_LAT CMA_LON CMA_CAT CMA_WIND CMA_PRES HKO_LAT HKO_LON HKO_CAT HKO_WIND HKO_PRES NEWDELHI_LAT NEWDELHI_LON NEWDELHI_GRADE NEWDELHI_WIND NEWDELHI_PRES NEWDELHI_CI NEWDELHI_DP NEWDELHI_POCI REUNION_LAT REUNION_LON REUNION_TYPE REUNION_WIND REUNION_PRES REUNION_TNUM REUNION_CI REUNION_RMW REUNION_R34_NE REUNION_R34_SE REUNION_R34_SW REUNION_R34_NW REUNION_R50_NE REUNION_R50_SE REUNION_R50_SW REUNION_R50_NW REUNION_R64_NE REUNION_R64_SE REUNION_R64_SW REUNION_R64_NW BOM_LAT BOM_LON BOM_TYPE BOM_WIND BOM_PRES BOM_TNUM BOM_CI BOM_RMW BOM_R34_NE BOM_R34_SE BOM_R34_SW BOM_R34_NW BOM_R50_NE BOM_R50_SE BOM_R50_SW BOM_R50_NW BOM_R64_NE BOM_R64_SE BOM_R64_SW BOM_R64_NW BOM_ROCI BOM_POCI BOM_EYE BOM_POS_METHOD BOM_PRES_METHOD NADI_LAT NADI_LON NADI_CAT NADI_WIND NADI_PRES WELLINGTON_LAT WELLINGTON_LON WELLINGTON_WIND WELLINGTON_PRES DS824_LAT DS824_LON DS824_STAGE DS824_WIND DS824_PRES TD9636_LAT TD9636_LON TD9636_STAGE TD9636_WIND TD9636_PRES TD9635_LAT TD9635_LON TD9635_WIND TD9635_PRES TD9635_ROCI NEUMANN_LAT NEUMANN_LON NEUMANN_CLASS NEUMANN_WIND NEUMANN_PRES MLC_LAT MLC_LON MLC_CLASS MLC_WIND MLC_PRES USA_GUST BOM_GUST BOM_GUST_PER REUNION_GUST REUNION_GUST_PER USA_SEAHGT USA_SEARAD_NE USA_SEARAD_SE USA_SEARAD_SW USA_SEARAD_NW STORM_SPEED STORM_DIR
2021244N24164 2021 73 WP MM NOT_NAMED 2021-09-01 00:00:00 SS 24.4000 164.100 main 2551 2507 O_____________ jtwc_wp WP172021 24.4000 164.100 SD 25 1004 -2 1010 150 100 9 311
2021244N24164 2021 73 WP MM NOT_NAMED 2021-09-01 03:00:00 SS 24.6793 163.744 main 2499 2437 P_____________ WP172021 24.6793 163.744 SD 25 1004 -2 1009 165 90 11 296
2021244N24164 2021 73 WP MM NOT_NAMED 2021-09-01 06:00:00 MX 24.8750 163.025 main 2428 2351 O_O___________ jtwc_wp WP172021 25.0000 163.200 SD 25 1004 -2 1009 180 80 24.5000 162.500 1 25 1010 14 290
2021244N24164 2021 73 WP MM NOT_NAMED 2021-09-01 09:00:00 MX 25.1791 162.246 main 2343 2266 P_P___________ WP172021 25.3736 162.366 SD 27 1004 -2 1010 180 70 24.7903 162.005 1 25 1010 15 294
2021244N24164 2021 73 WP MM NOT_NAMED 2021-09-01 12:00:00 TS 25.4875 161.500 main 2266 2204 O_OO__________ jtwc_wp WP172021 25.7000 161.500 TD 30 1004 -1 1011 180 60 25.1000 161.500 1 25 1010 25.8000 161.500 TD 25 1008 13 294
2021244N24164 2021 73 WP MM NOT_NAMED 2021-09-01 15:00:00 TS 25.7124 160.918 main 2204 2144 P_PP__________ WP172021 25.8493 160.889 TD 30 1004 -1 1011 165 60 25.4425 160.985 1 25 1010 25.9785 160.843 TD 25 1008 11 297
2021244N24164 2021 73 WP MM NOT_NAMED 2021-09-01 18:00:00 TS 25.9818 160.409 main 2144 2092 O_OO__________ jtwc_wp WP172021 26.0000 160.400 TD 30 1004 -1 1011 150 60 25.8000 160.500 1 25 1010 26.2000 160.300 TD 25 1008 10 306
2021244N24164 2021 73 WP MM NOT_NAMED 2021-09-01 21:00:00 TS 26.3329 159.985 main 2092 2034 P_PP__________ WP172021 26.3497 159.935 TD 30 1004 -1 1011 142 60 26.1573 160.085 1 27 1009 26.4919 159.935 TD 27 1007 10 313
2021244N24164 2021 73 WP MM NOT_NAMED 2021-09-02 00:00:00 TS 26.6667 159.600 main 2034 1981 O_OO__________ jtwc_wp WP172021 26.7000 159.500 TD 30 1004 -1 1011 135 60 26.5000 159.700 1 29 1008 26.8000 159.600 TD 30 1006 10 306
2021244N24164 2021 73 WP MM NOT_NAMED 2021-09-02 03:00:00 TS 26.9003 159.110 main 1981 1935 P_PP__________ WP172021 26.8427 158.990 TD 30 1004 -1 1011 135 60 26.7926 159.270 1 29 1008 27.0655 159.070 TD 30 1006 9 300
2021244N24164 2021 73 WP MM NOT_NAMED 2021-09-02 06:00:00 TS 27.1333 158.700 main 1935 1900 O_OO__________ jtwc_wp WP172021 27.0000 158.600 TD 30 1004 -1 1011 135 60 27.1000 158.900 1 29 1008 27.3000 158.600 TD 30 1006 7 315
2021244N24164 2021 73 WP MM NOT_NAMED 2021-09-02 09:00:00 TS 27.4189 158.526 main 1900 1868 P_PP__________ WP172021 27.3322 158.512 TD 32 1002 -1 1011 135 50 27.4848 158.670 1 29 1008 27.4397 158.397 TD 30 1006 7 340
2021244N24164 2021 73 WP MM NOT_NAMED 2021-09-02 12:00:00 TS 27.8000 158.433 main 1868 1830 O_OO__________ jtwc_wp WP172021 27.8000 158.500 TS 35 1001 0 75 65 75 1011 135 40 27.9000 158.500 1 29 1008 27.7000 158.300 TD 30 1006 10 346
2021244N24164 2021 73 WP MM NOT_NAMED 2021-09-02 15:00:00 TS 28.3400 158.263 main 1830 1779 P_PP__________ WP172021 28.4075 158.330 TS 32 1001 -1 1010 142 40 28.2850 158.300 1 29 1008 28.3275 158.158 TD 30 1006 12 344
2021244N24164 2021 73 WP MM NOT_NAMED 2021-09-02 18:00:00 TS 28.9000 158.067 main 1779 1732 O_OO__________ jtwc_wp WP172021 29.0000 158.100 TD 30 1002 -1 1010 150 40 28.7000 158.100 1 29 1008 29.0000 158.000 TD 30 1006 11 338
2021244N24164 2021 73 WP MM NOT_NAMED 2021-09-02 21:00:00 TS 29.3126 157.813 main 1732 1694 P_PP__________ WP172021 29.3726 157.805 TD 27 1003 -1 1010 150 40 29.1851 157.870 1 29 1008 29.3801 157.763 TD 30 1006 9 335
2021244N24164 2021 73 WP MM NOT_NAMED 2021-09-03 00:00:00 TS 29.7000 157.633 main 1694 1674 O_OO__________ jtwc_wp WP172021 29.7000 157.600 TD 25 1005 -1 1011 150 40 29.7000 157.700 1 29 1008 29.7000 157.600 TD 30 1006 9 350
2021244N24164 2021 73 WP MM NOT_NAMED 2021-09-03 03:00:00 TS 30.1591 157.642 main 1669 1658 P_PP__________ WP172021 30.1574 157.632 TD 25 1005 -1 1011 150 40 30.1849 157.662 1 29 1008 30.1349 157.632 TD 30 1006 9 7
2021244N24164 2021 73 WP MM NOT_NAMED 2021-09-03 06:00:00 TS 30.6333 157.767 main 1667 1649 O_OO__________ jtwc_wp WP172021 30.6000 157.800 TD 25 1005 -1 1011 150 40 30.7000 157.700 1 29 1008 30.6000 157.800 TD 30 1006 9 13
2021244N24164 2021 73 WP MM NOT_NAMED 2021-09-03 09:00:00 TS 31.0331 157.870 main 1658 1649 P_PP__________ WP172021 30.8245 157.920 TD 27 1003 -1 1011 150 40 31.2622 157.677 1 29 1008 31.0125 158.013 TD 30 1006 9 18
2021244N24164 2021 73 WP MM NOT_NAMED 2021-09-03 12:00:00 TS 31.5333 158.100 main 1654 1650 O_OO__________ jtwc_wp WP172021 31.2000 158.200 TD 30 1001 -1 1011 150 40 31.9000 157.800 1 29 1008 31.5000 158.300 TD 30 1006 14 25
2021244N24164 2021 73 WP MM NOT_NAMED 2021-09-03 15:00:00 TS 32.2837 158.559 main 1665 1605 P_PP__________ WP172021 32.0909 158.809 TD 27 1003 -1 1010 145 40 32.6426 158.209 1 27 1009 32.1177 158.657 TD 27 1007 18 28
2021244N24164 2021 73 WP MM NOT_NAMED 2021-09-03 18:00:00 TS 33.1100 159.090 main 1605 1539 O_OO__________ jtwc_wp WP172021 33.1000 159.500 TD 25 1005 -1 1010 140 40 33.4000 158.800 1 25 1010 32.9000 159.000 TD 25 1008 18 24
2021244N24164 2021 73 WP MM NOT_NAMED 2021-09-03 21:00:00 TS 33.9394 159.428 main 1539 1477 P_PP__________ WP172021 33.8819 160.014 TD 25 1005 -1 1010 140 40 34.0780 159.441 1 25 1010 33.8989 159.128 TD 25 1008 18 18
2021244N24164 2021 73 WP MM NOT_NAMED 2021-09-04 00:00:00 TS 34.7800 159.740 main 1467 1408 O_OO__________ jtwc_wp WP172021 34.5000 160.400 TD 25 1005 -1 1010 140 40 34.7000 160.100 1 25 1010 34.9000 159.400 TD 25 1008 18 18
2021244N24164 2021 73 WP MM NOT_NAMED 2021-09-04 03:00:00 NR 35.6776 160.108 main 1404 1394 ___P__________ WP172021 TD -5 1 35.6776 160.108 TD 25 1008 19 36
2021244N24164 2021 73 WP MM NOT_NAMED 2021-09-04 06:00:00 NR 36.3000 161.100 main 1403 ___O__________ -5 36.3000 161.100 TD 25 1008 20 52

Digital Typhoon Data and Search

About IBTrACS Database

This database is a web-friendly format of International Best Track Archive for Climate Stewardship (IBTrACS), a global best track data archive curated by NOAA dating back to 1842.

Updated: 2022-11-16